createdAt,value
2022-08-03T00:01:25.359Z,18.62
2022-08-03T00:03:53.339Z,18.55
2022-08-03T00:06:19.888Z,18.50
2022-08-03T00:08:46.518Z,18.41
2022-08-03T00:11:13.137Z,18.37
2022-08-03T00:13:39.743Z,18.44
2022-08-03T00:16:06.355Z,18.35
2022-08-03T00:18:32.923Z,18.36
2022-08-03T00:21:00.828Z,18.31
2022-08-03T00:23:31.748Z,18.15
2022-08-03T00:26:13.994Z,18.19
2022-08-03T00:28:40.522Z,18.15
2022-08-03T00:31:07.158Z,18.11
2022-08-03T00:33:57.942Z,18.07
2022-08-03T00:36:22.206Z,18.04
2022-08-03T00:38:48.810Z,17.99
2022-08-03T00:41:15.576Z,17.96
2022-08-03T00:43:42.296Z,17.92
2022-08-03T00:46:09.143Z,17.80
2022-08-03T00:48:35.714Z,17.81
2022-08-03T00:51:02.681Z,17.76
2022-08-03T00:53:31.121Z,17.73
2022-08-03T00:55:58.383Z,17.70
2022-08-03T00:58:24.963Z,17.65
2022-08-03T01:00:51.787Z,17.61
2022-08-03T01:03:18.397Z,17.58
2022-08-03T01:05:52.934Z,17.39
2022-08-03T01:08:28.202Z,17.54
2022-08-03T01:11:06.536Z,17.47
2022-08-03T01:14:01.365Z,17.53
2022-08-03T01:16:35.973Z,17.47
2022-08-03T01:19:31.164Z,17.42
2022-08-03T01:22:10.751Z,17.36
2022-08-03T01:24:45.536Z,17.22
2022-08-03T01:27:18.995Z,17.30
2022-08-03T01:30:02.208Z,17.17
2022-08-03T01:32:58.291Z,17.19
2022-08-03T01:35:29.506Z,17.17
2022-08-03T01:38:02.341Z,17.15
2022-08-03T01:40:31.182Z,17.13
2022-08-03T01:42:59.845Z,17.01
2022-08-03T01:45:30.109Z,17.06
2022-08-03T01:48:02.723Z,17.02
2022-08-03T01:50:31.633Z,17.00
2022-08-03T01:52:59.658Z,16.99
2022-08-03T01:55:26.970Z,16.97
2022-08-03T01:58:04.665Z,16.94
2022-08-03T02:00:36.463Z,16.90
2022-08-03T02:03:06.000Z,16.84
2022-08-03T02:05:33.769Z,16.73
2022-08-03T02:08:02.013Z,16.75
2022-08-03T02:10:35.193Z,16.60
2022-08-03T02:13:05.122Z,16.67
2022-08-03T02:15:33.493Z,16.63
2022-08-03T02:18:04.383Z,16.64
2022-08-03T02:20:32.541Z,16.60
2022-08-03T02:22:59.424Z,16.54
2022-08-03T02:25:26.218Z,16.53
2022-08-03T02:27:56.352Z,16.47
2022-08-03T02:30:29.747Z,16.30
2022-08-03T02:32:59.104Z,16.43
2022-08-03T02:35:29.399Z,16.41
2022-08-03T02:38:00.920Z,16.37
2022-08-03T02:40:28.265Z,16.29
2022-08-03T02:42:59.499Z,16.27
2022-08-03T02:45:28.635Z,16.27
2022-08-03T02:47:59.627Z,16.27
2022-08-03T02:50:29.356Z,16.25
2022-08-03T02:52:58.570Z,16.17
2022-08-03T02:55:27.244Z,16.08
2022-08-03T02:57:55.460Z,16.08
2022-08-03T03:00:27.554Z,16.09
2022-08-03T03:02:57.401Z,16.08
2022-08-03T03:05:52.906Z,16.09
2022-08-03T03:08:17.727Z,16.07
2022-08-03T03:10:46.411Z,15.80
2022-08-03T03:13:15.012Z,16.02
2022-08-03T03:15:43.278Z,16.03
2022-08-03T03:18:11.449Z,16.03
2022-08-03T03:20:39.659Z,15.99
2022-08-03T03:23:08.380Z,15.91
2022-08-03T03:25:37.240Z,15.99
2022-08-03T03:28:06.344Z,15.98
2022-08-03T03:30:34.575Z,15.96
2022-08-03T03:33:01.230Z,15.94
2022-08-03T03:35:28.221Z,15.85
2022-08-03T03:37:55.150Z,15.74
2022-08-03T03:40:22.098Z,15.88
2022-08-03T03:42:50.819Z,15.90
2022-08-03T03:45:18.595Z,15.86
2022-08-03T03:47:45.400Z,15.85
2022-08-03T03:50:12.494Z,15.85
2022-08-03T03:52:39.071Z,15.83
2022-08-03T03:55:06.978Z,15.77
2022-08-03T03:57:34.594Z,15.80
2022-08-03T04:00:03.198Z,15.78
2022-08-03T04:02:31.137Z,15.76
2022-08-03T04:04:57.988Z,15.80
2022-08-03T04:07:26.620Z,15.72
2022-08-03T04:09:54.876Z,15.79
2022-08-03T04:12:29.541Z,15.81
2022-08-03T04:14:58.918Z,15.81
2022-08-03T04:17:28.232Z,15.61
2022-08-03T04:19:57.138Z,15.63
2022-08-03T04:22:27.606Z,15.76
2022-08-03T04:24:58.760Z,15.27
2022-08-03T04:27:28.787Z,15.76
2022-08-03T04:29:57.540Z,15.72
2022-08-03T04:32:26.233Z,15.85
2022-08-03T04:34:54.536Z,16.11
2022-08-03T04:37:26.665Z,16.43
2022-08-03T04:39:56.962Z,16.64
2022-08-03T04:42:25.682Z,16.87
2022-08-03T04:45:00.455Z,17.05
2022-08-03T04:47:28.343Z,17.18
2022-08-03T04:49:56.598Z,17.39
2022-08-03T04:52:23.399Z,17.54
2022-08-03T04:54:51.032Z,17.64
2022-08-03T04:57:22.301Z,17.63
2022-08-03T04:59:50.410Z,17.65
2022-08-03T05:02:17.296Z,17.64
2022-08-03T05:04:44.221Z,17.69
2022-08-03T05:07:12.600Z,17.52
2022-08-03T05:09:50.783Z,17.75
2022-08-03T05:12:24.223Z,17.79
2022-08-03T05:14:50.933Z,17.18
2022-08-03T05:17:17.558Z,17.82
2022-08-03T05:19:44.260Z,17.82
2022-08-03T05:22:12.267Z,17.83
2022-08-03T05:24:38.818Z,17.85
2022-08-03T05:27:05.507Z,17.87
2022-08-03T05:29:32.057Z,17.48
2022-08-03T05:31:58.705Z,17.96
2022-08-03T05:34:25.629Z,18.03
2022-08-03T05:36:52.595Z,18.08
2022-08-03T05:39:20.550Z,18.14
2022-08-03T05:41:47.228Z,17.90
2022-08-03T05:44:13.967Z,18.03
2022-08-03T05:46:40.612Z,18.18
2022-08-03T05:49:07.243Z,18.36
2022-08-03T05:51:34.307Z,18.38
2022-08-03T05:54:00.993Z,18.49
2022-08-03T05:56:29.095Z,18.56
2022-08-03T05:58:55.967Z,18.58
2022-08-03T06:01:22.639Z,18.75
2022-08-03T06:03:49.982Z,18.74
2022-08-03T06:06:17.350Z,18.88
2022-08-03T06:08:45.585Z,18.94
2022-08-03T06:11:12.849Z,19.07
2022-08-03T06:13:41.666Z,19.18
2022-08-03T06:16:08.624Z,19.28
2022-08-03T06:18:35.290Z,19.31
2022-08-03T06:21:15.208Z,19.49
2022-08-03T06:23:54.141Z,19.64
2022-08-03T06:26:26.951Z,19.77
2022-08-03T06:28:55.586Z,19.75
2022-08-03T06:31:24.336Z,19.96
2022-08-03T06:34:33.905Z,20.08
2022-08-03T06:36:38.011Z,20.20
2022-08-03T06:39:04.997Z,20.36
2022-08-03T06:41:31.630Z,20.46
2022-08-03T06:44:09.233Z,20.62
2022-08-03T06:46:37.085Z,20.73
2022-08-03T06:49:03.733Z,20.70
2022-08-03T06:52:04.357Z,20.88
2022-08-03T06:54:17.158Z,21.12
2022-08-03T06:56:43.804Z,21.25
2022-08-03T07:00:10.527Z,20.87
2022-08-03T07:01:58.437Z,21.53
2022-08-03T07:04:25.185Z,21.61
2022-08-03T07:06:51.826Z,21.87
2022-08-03T07:09:18.433Z,22.01
2022-08-03T07:11:45.075Z,22.12
2022-08-03T07:14:12.965Z,22.38
2022-08-03T07:16:39.529Z,22.54
2022-08-03T07:19:06.063Z,22.66
2022-08-03T07:21:32.733Z,22.82
2022-08-03T07:23:59.319Z,22.98
2022-08-03T07:26:25.860Z,23.10
2022-08-03T07:28:52.394Z,23.28
2022-08-03T07:31:20.503Z,23.43
2022-08-03T07:33:47.036Z,23.35
2022-08-03T07:36:13.679Z,23.79
2022-08-03T07:38:40.250Z,23.98
2022-08-03T07:41:06.894Z,24.10
2022-08-03T07:43:33.451Z,24.25
2022-08-03T07:46:00.161Z,24.17
2022-08-03T07:48:28.126Z,24.59
2022-08-03T07:50:54.758Z,24.74
2022-08-03T07:53:21.339Z,24.72
2022-08-03T07:55:47.959Z,25.04
2022-08-03T07:58:14.554Z,25.06
2022-08-03T08:00:41.897Z,25.35
2022-08-03T08:03:08.659Z,25.27
2022-08-03T08:05:37.221Z,25.54
2022-08-03T08:08:04.953Z,25.67
2022-08-03T08:10:31.801Z,25.46
2022-08-03T08:12:58.946Z,25.87
2022-08-03T08:15:25.849Z,26.00
2022-08-03T08:17:55.323Z,26.08
2022-08-03T08:20:28.160Z,26.24
2022-08-03T08:23:01.261Z,26.41
2022-08-03T08:25:29.454Z,26.47
2022-08-03T08:28:22.541Z,26.61
2022-08-03T08:30:43.185Z,26.82
2022-08-03T08:33:22.418Z,26.92
2022-08-03T08:35:50.935Z,27.02
2022-08-03T08:38:18.991Z,27.19
2022-08-03T08:40:46.120Z,27.32
2022-08-03T08:43:12.717Z,27.42
2022-08-03T08:45:40.876Z,27.57
2022-08-03T08:48:10.531Z,27.67
2022-08-03T08:50:38.663Z,27.83
2022-08-03T08:53:17.352Z,27.95
2022-08-03T08:55:59.206Z,28.07
2022-08-03T08:58:29.850Z,28.27
2022-08-03T09:00:57.147Z,28.41
2022-08-03T09:03:30.182Z,28.62
2022-08-03T09:05:59.609Z,28.63
2022-08-03T09:08:26.211Z,28.64
2022-08-03T09:10:54.336Z,28.75
2022-08-03T09:13:21.180Z,28.72
2022-08-03T09:15:57.240Z,28.92
2022-08-03T09:18:32.202Z,28.94
2022-08-03T09:21:30.047Z,29.12
2022-08-03T09:24:03.412Z,29.18
2022-08-03T09:26:34.343Z,29.29
2022-08-03T09:29:09.286Z,29.44
2022-08-03T09:31:39.424Z,29.58
2022-08-03T09:34:11.819Z,29.67
2022-08-03T09:36:40.895Z,29.82
2022-08-03T09:39:09.808Z,29.83
2022-08-03T09:41:39.528Z,29.97
2022-08-03T09:44:06.509Z,30.07
2022-08-03T09:46:50.088Z,30.20
2022-08-03T09:49:17.308Z,30.34
2022-08-03T09:52:32.530Z,30.43
2022-08-03T09:54:32.415Z,30.36
2022-08-03T09:57:00.816Z,30.60
2022-08-03T09:59:28.857Z,30.56
2022-08-03T10:01:56.433Z,30.52
2022-08-03T10:04:23.682Z,30.64
2022-08-03T10:07:04.743Z,30.75
2022-08-03T10:09:31.588Z,30.52
2022-08-03T10:12:06.647Z,30.75
2022-08-03T10:14:33.932Z,30.85
2022-08-03T10:17:00.526Z,30.81
2022-08-03T10:19:27.220Z,30.94
2022-08-03T10:21:55.902Z,31.07
2022-08-03T10:24:26.005Z,30.95
2022-08-03T10:26:56.912Z,31.01
2022-08-03T10:29:28.666Z,31.16
2022-08-03T10:31:59.025Z,31.09
2022-08-03T10:34:28.902Z,31.20
2022-08-03T10:37:00.000Z,31.20
2022-08-03T10:39:29.851Z,31.41
2022-08-03T10:41:57.790Z,31.31
2022-08-03T10:44:29.469Z,31.41
2022-08-03T10:46:56.859Z,31.37
2022-08-03T10:49:33.939Z,31.60
2022-08-03T10:52:02.778Z,31.66
2022-08-03T10:54:41.478Z,31.70
2022-08-03T10:57:48.858Z,31.78
2022-08-03T11:00:18.923Z,31.93
2022-08-03T11:03:15.632Z,32.04
2022-08-03T11:05:43.615Z,32.14
2022-08-03T11:08:25.150Z,32.10
2022-08-03T11:10:53.231Z,32.12
2022-08-03T11:13:21.554Z,32.22
2022-08-03T11:15:53.305Z,32.25
2022-08-03T11:18:27.556Z,32.22
2022-08-03T11:20:56.186Z,32.39
2022-08-03T11:24:04.630Z,32.38
2022-08-03T11:26:28.723Z,32.62
2022-08-03T11:29:27.837Z,32.74
2022-08-03T11:31:55.950Z,32.79
2022-08-03T11:34:22.635Z,32.89
2022-08-03T11:37:27.536Z,32.74
2022-08-03T11:39:56.944Z,32.77
2022-08-03T11:42:40.140Z,32.91
2022-08-03T11:45:08.997Z,33.09
2022-08-03T11:47:50.638Z,33.23
2022-08-03T11:50:18.738Z,33.11
2022-08-03T11:52:45.419Z,33.38
2022-08-03T11:55:15.576Z,33.29
2022-08-03T11:59:15.255Z,33.58
2022-08-03T12:00:30.902Z,33.76
2022-08-03T12:03:04.527Z,34.02
2022-08-03T12:05:51.138Z,34.13
2022-08-03T12:08:29.844Z,34.26
2022-08-03T12:10:58.276Z,34.27
2022-08-03T12:14:43.764Z,34.32
2022-08-03T12:16:18.233Z,34.53
2022-08-03T12:18:46.285Z,34.69
2022-08-03T12:21:12.932Z,34.83
2022-08-03T12:23:39.683Z,34.99
2022-08-03T12:26:08.061Z,35.17
2022-08-03T12:28:37.616Z,35.19
2022-08-03T12:31:06.663Z,35.19
2022-08-03T12:33:59.035Z,35.25
2022-08-03T12:36:26.287Z,35.30
2022-08-03T12:38:56.025Z,35.45
2022-08-03T12:41:29.962Z,35.43
2022-08-03T12:43:56.840Z,35.27
2022-08-03T12:46:30.645Z,35.14
2022-08-03T12:49:05.475Z,34.92
2022-08-03T12:51:35.047Z,34.69
2022-08-03T12:54:02.089Z,34.64
2022-08-03T12:56:28.917Z,34.47
2022-08-03T12:58:55.966Z,34.53
2022-08-03T13:01:22.872Z,34.50
2022-08-03T13:03:52.974Z,34.21
2022-08-03T13:06:23.549Z,34.47
2022-08-03T13:09:01.097Z,34.58
2022-08-03T13:11:43.425Z,34.62
2022-08-03T13:14:20.038Z,34.72
2022-08-03T13:16:48.018Z,34.40
2022-08-03T13:19:16.126Z,34.28
2022-08-03T13:22:03.601Z,34.35
2022-08-03T13:24:32.402Z,34.73
2022-08-03T13:26:59.079Z,34.85
2022-08-03T13:29:25.877Z,35.02
2022-08-03T13:31:52.860Z,35.34
2022-08-03T13:34:23.433Z,35.67
2022-08-03T13:37:08.503Z,35.84
2022-08-03T13:39:58.054Z,36.31
2022-08-03T13:42:23.134Z,36.71
2022-08-03T13:44:49.761Z,36.87
2022-08-03T13:47:16.602Z,36.76
2022-08-03T13:49:54.267Z,36.93
2022-08-03T13:52:31.727Z,36.98
2022-08-03T13:54:58.464Z,37.04
2022-08-03T13:58:03.025Z,36.92
2022-08-03T14:00:13.031Z,36.87
2022-08-03T14:02:53.009Z,36.97
2022-08-03T14:05:19.661Z,37.07
2022-08-03T14:07:47.676Z,36.95
2022-08-03T14:10:14.297Z,36.73
2022-08-03T14:12:40.950Z,36.90
2022-08-03T14:15:08.690Z,37.09
2022-08-03T14:17:49.735Z,37.27
2022-08-03T14:20:37.126Z,37.31
2022-08-03T14:23:04.938Z,37.22
2022-08-03T14:25:43.180Z,37.26
2022-08-03T14:28:11.782Z,37.41
2022-08-03T14:30:38.439Z,37.46
2022-08-03T14:33:05.084Z,37.54
2022-08-03T14:35:31.631Z,37.58
2022-08-03T14:37:58.615Z,37.70
2022-08-03T14:40:26.542Z,37.92
2022-08-03T14:42:53.261Z,38.24
2022-08-03T14:45:20.751Z,38.55
2022-08-03T14:50:32.923Z,38.76
2022-08-03T14:50:42.963Z,39.01
2022-08-03T14:53:12.458Z,39.11
2022-08-03T14:55:49.373Z,39.28
2022-08-03T14:58:20.806Z,39.29
2022-08-03T15:00:49.394Z,39.62
2022-08-03T15:03:16.920Z,39.70
2022-08-03T15:05:44.070Z,39.81
2022-08-03T15:08:10.682Z,39.92
2022-08-03T15:10:40.659Z,39.77
2022-08-03T15:13:13.503Z,39.83
2022-08-03T15:15:40.728Z,40.04
2022-08-03T15:18:07.791Z,40.09
2022-08-03T15:20:49.906Z,40.19
2022-08-03T15:23:18.095Z,40.14
2022-08-03T15:26:06.447Z,40.17
2022-08-03T15:28:33.971Z,40.37
2022-08-03T15:31:00.856Z,40.43
2022-08-03T15:33:28.049Z,40.57
2022-08-03T15:35:54.831Z,40.66
2022-08-03T15:38:21.564Z,40.89
2022-08-03T15:40:48.207Z,41.04
2022-08-03T15:43:14.858Z,41.17
2022-08-03T15:45:42.947Z,41.33
2022-08-03T15:48:09.553Z,41.51
2022-08-03T15:50:36.154Z,41.59
2022-08-03T15:53:02.994Z,41.69
2022-08-03T15:55:29.715Z,41.86
2022-08-03T15:59:09.397Z,42.07
2022-08-03T16:00:44.767Z,41.96
2022-08-03T16:03:11.443Z,41.81
2022-08-03T16:05:38.138Z,42.14
2022-08-03T16:08:07.081Z,42.17
2022-08-03T16:10:36.998Z,42.12
2022-08-03T16:13:03.620Z,41.93
2022-08-03T16:15:30.331Z,41.84
2022-08-03T16:17:58.358Z,41.78
2022-08-03T16:20:29.242Z,41.79
2022-08-03T16:23:01.557Z,41.93
2022-08-03T16:25:35.829Z,42.08
2022-08-03T16:28:07.737Z,42.46
2022-08-03T16:30:40.071Z,42.71
2022-08-03T16:33:08.367Z,42.97
2022-08-03T16:35:35.104Z,43.04
2022-08-03T16:38:04.366Z,42.94
2022-08-03T16:40:33.487Z,43.05
2022-08-03T16:43:17.815Z,43.02
2022-08-03T16:45:45.616Z,43.21
2022-08-03T16:48:14.227Z,43.51
2022-08-03T16:50:40.881Z,42.99
2022-08-03T16:53:09.835Z,43.33
2022-08-03T16:55:43.368Z,43.08
2022-08-03T16:58:19.090Z,42.65
2022-08-03T17:01:00.990Z,42.09
2022-08-03T17:03:57.436Z,41.64
2022-08-03T17:06:26.546Z,41.15
2022-08-03T17:09:01.872Z,40.81
2022-08-03T17:11:30.035Z,40.45
2022-08-03T17:14:00.174Z,40.43
2022-08-03T17:16:27.186Z,40.51
2022-08-03T17:18:58.462Z,40.74
2022-08-03T17:21:31.093Z,41.06
2022-08-03T17:24:12.270Z,41.29
2022-08-03T17:26:43.336Z,41.42
2022-08-03T17:29:13.169Z,41.76
2022-08-03T17:31:48.690Z,41.91
2022-08-03T17:34:18.887Z,42.11
2022-08-03T17:37:04.213Z,42.16
2022-08-03T17:39:57.177Z,42.34
2022-08-03T17:42:30.183Z,42.43
2022-08-03T17:45:02.414Z,42.30
2022-08-03T17:47:41.935Z,42.21
2022-08-03T17:50:25.230Z,42.50
2022-08-03T17:53:07.682Z,42.39
2022-08-03T17:55:57.227Z,42.37
2022-08-03T17:58:52.565Z,42.33
2022-08-03T18:02:00.884Z,41.76
2022-08-03T18:04:12.360Z,41.15
2022-08-03T18:06:55.833Z,40.59
2022-08-03T18:10:03.353Z,39.92
2022-08-03T18:12:18.584Z,39.28
2022-08-03T18:14:59.205Z,38.68
2022-08-03T18:17:55.024Z,38.17
2022-08-03T18:20:31.055Z,37.65
2022-08-03T18:23:04.631Z,37.04
2022-08-03T18:25:45.669Z,36.76
2022-08-03T18:28:18.682Z,36.39
2022-08-03T18:30:54.194Z,35.90
2022-08-03T18:34:19.021Z,35.56
2022-08-03T18:36:10.375Z,35.10
2022-08-03T18:38:40.404Z,34.90
2022-08-03T18:41:15.694Z,34.56
2022-08-03T18:43:47.286Z,34.11
2022-08-03T18:46:26.477Z,33.99
2022-08-03T18:49:00.154Z,33.67
2022-08-03T18:51:43.260Z,33.36
2022-08-03T18:57:12.416Z,32.59
2022-08-03T18:59:52.209Z,32.30
2022-08-03T19:02:28.645Z,31.98
2022-08-03T19:05:04.623Z,31.69
2022-08-03T19:07:36.153Z,31.14
2022-08-03T19:10:06.934Z,31.12
2022-08-03T19:12:39.854Z,30.83
2022-08-03T19:15:12.596Z,30.52
2022-08-03T19:17:41.307Z,30.40
2022-08-03T19:20:09.165Z,30.10
2022-08-03T19:22:36.852Z,29.89
2022-08-03T19:25:06.448Z,29.74
2022-08-03T19:27:39.787Z,29.56
2022-08-03T19:30:21.864Z,29.43
2022-08-03T19:32:54.220Z,29.19
2022-08-03T19:35:52.007Z,29.11
2022-08-03T19:38:09.970Z,28.90
2022-08-03T19:40:42.146Z,28.72
2022-08-03T19:43:11.554Z,28.54
2022-08-03T19:46:05.091Z,28.35
2022-08-03T19:48:34.213Z,28.27
2022-08-03T19:51:02.682Z,28.10
2022-08-03T19:53:44.859Z,27.94
2022-08-03T19:56:15.843Z,27.61
2022-08-03T19:58:42.585Z,27.62
2022-08-03T20:01:19.163Z,27.50
2022-08-03T20:03:48.879Z,27.38
2022-08-03T20:06:16.871Z,27.20
2022-08-03T20:08:44.442Z,27.09
2022-08-03T20:11:12.799Z,26.76
2022-08-03T20:13:44.056Z,26.92
2022-08-03T20:16:15.163Z,26.71
2022-08-03T20:18:42.675Z,26.73
2022-08-03T20:21:14.755Z,26.62
2022-08-03T20:23:58.077Z,26.36
2022-08-03T20:26:31.494Z,26.37
2022-08-03T20:29:09.157Z,26.16
2022-08-03T20:31:36.991Z,26.27
2022-08-03T20:34:03.927Z,26.08
2022-08-03T20:36:30.572Z,25.97
2022-08-03T20:38:58.185Z,26.02
2022-08-03T20:41:25.361Z,25.92
2022-08-03T20:43:53.497Z,25.71
2022-08-03T20:46:32.745Z,25.70
2022-08-03T20:49:06.544Z,25.50
2022-08-03T20:51:49.698Z,25.30
2022-08-03T20:54:29.287Z,25.14
2022-08-03T20:56:57.635Z,24.95
2022-08-03T20:59:26.850Z,24.92
2022-08-03T21:01:53.646Z,24.88
2022-08-03T21:04:21.960Z,24.82
2022-08-03T21:06:54.559Z,24.75
2022-08-03T21:09:33.313Z,24.69
2022-08-03T21:12:12.086Z,24.54
2022-08-03T21:13:00.958Z,33.00
2022-08-03T21:14:51.881Z,24.54
2022-08-03T21:17:39.139Z,24.43
2022-08-03T21:20:09.530Z,24.26
2022-08-03T21:22:37.783Z,24.25
2022-08-03T21:25:07.417Z,24.18
2022-08-03T21:27:35.432Z,24.13
2022-08-03T21:30:07.531Z,24.08
2022-08-03T21:32:34.361Z,24.01
2022-08-03T21:35:01.506Z,23.91
2022-08-03T21:37:28.833Z,23.86
2022-08-03T21:39:56.018Z,23.74
2022-08-03T21:42:23.458Z,23.66
2022-08-03T21:44:50.924Z,23.61
2022-08-03T21:47:20.838Z,23.57
2022-08-03T21:50:08.534Z,23.49
2022-08-03T21:52:41.268Z,23.40
2022-08-03T21:55:08.697Z,23.35
2022-08-03T21:57:51.390Z,23.30
2022-08-03T22:00:20.438Z,23.21
2022-08-03T22:02:53.174Z,23.15
2022-08-03T22:05:28.134Z,23.04
2022-08-03T22:08:10.750Z,22.95
2022-08-03T22:10:37.859Z,22.88
2022-08-03T22:13:04.707Z,22.73
2022-08-03T22:15:32.719Z,22.72
2022-08-03T22:18:01.257Z,22.65
2022-08-03T22:20:27.791Z,22.57
2022-08-03T22:22:59.796Z,22.52
2022-08-03T22:25:28.379Z,22.44
2022-08-03T22:27:55.413Z,22.38
2022-08-03T22:30:22.812Z,22.24
2022-08-03T22:32:51.876Z,22.11
2022-08-03T22:35:24.097Z,21.68
2022-08-03T22:37:54.256Z,22.13
2022-08-03T22:40:21.350Z,21.97
2022-08-03T22:42:48.681Z,21.99
2022-08-03T22:46:07.542Z,21.89
2022-08-03T22:48:07.262Z,21.82
2022-08-03T22:50:35.804Z,21.58
2022-08-03T22:53:03.191Z,21.63
2022-08-03T22:55:29.971Z,21.56
2022-08-03T22:57:56.728Z,21.50
2022-08-03T23:00:24.214Z,21.39
2022-08-03T23:02:53.283Z,21.43
2022-08-03T23:06:01.277Z,21.30
2022-08-03T23:08:14.401Z,21.34
2022-08-03T23:10:46.798Z,21.04
2022-08-03T23:13:16.204Z,21.25
2022-08-03T23:15:47.297Z,21.20
2022-08-03T23:18:15.639Z,21.16
2022-08-03T23:20:42.602Z,20.99
2022-08-03T23:23:14.282Z,21.06
2022-08-03T23:25:47.272Z,21.04
2022-08-03T23:28:15.029Z,20.96
2022-08-03T23:30:42.704Z,20.97
2022-08-03T23:33:12.304Z,20.91
2022-08-03T23:36:29.595Z,20.83
2022-08-03T23:38:29.814Z,20.76
2022-08-03T23:40:58.753Z,20.64
2022-08-03T23:43:51.686Z,20.65
2022-08-03T23:46:14.439Z,20.61
2022-08-03T23:48:44.910Z,20.61
2022-08-03T23:51:23.439Z,20.56
2022-08-03T23:54:01.888Z,20.52
2022-08-03T23:56:41.299Z,20.47
2022-08-03T23:59:21.755Z,20.31
